CYCQ

Chetwynd Airport

Chetwynd, British Columbia, Canada
METAR CYCQ 190000Z 24005KT 210V270 35SM FEW040 FEW130 SCT180 01/M02 A2933 RMK SC1AC1AS1 LAST STFD OBS/NEXT 191400Z SLP963
Observed Flight Rules
Jan-19 @ 00:00 UTC (4 hours ago) Visual Flight Rules
Wind Visibility Clouds
240° at 5 knots 35 miles
  • Few at 4,000' AGL
  • Few at 13,000' AGL
  • Scattered at 18,000' AGL
Temperatures Readings
Current 1°C / 34°F
Dewpoint -2°C / 28°F
Humidity 81%
Altimeter 29.33" Hg
Pressure 996.3 hPa
Elevation 609
METAR CYCQ 190000Z 24005KT 210V270 35SM FEW040 FEW130 SCT180 01/M02 A2933 RMK SC1AC1AS1 LAST STFD OBS/NEXT 191400Z SLP963
Observed Flight Rules
Jan-19 @ 00:00 UTC
(4 hours ago)
VFR
Wind Visibility
240° at 5 knots 35 miles
Clouds
  • Few at 4,000' AGL
  • Few at 13,000' AGL
  • Scattered at 18,000' AGL
Temperature Dewpoint
1°C / 34°F -2°C / 28°F
Humidity Altimeter Pressure
81% 29.33" Hg 996.3 hPa